KCQW

Cheraw Municipal / Lynch Bellinger Field Airport

Cheraw, South Carolina, USA
METAR KCQW 141655Z AUTO 05008KT 1 3/4SM RA OVC004 11/11 A3012 RMK AO2 P0010
Observed Flight Rules
Dec-14 @ 16:55 UTC (9 minutes ago) Instrument Flight Rules
Wind Visibility Clouds Conditions
50° at 8 knots 1 3/4 miles
  • Overcast at 400' AGL
  • Rain
Temperatures Readings Precipitation
Current 11°C / 52°F
Dewpoint 11°C / 52°F
Humidity 100%
Altimeter 30.12" Hg
Pressure 1020 hPa
Elevation 73
Current Rain 0.1
METAR KCQW 141655Z AUTO 05008KT 1 3/4SM RA OVC004 11/11 A3012 RMK AO2 P0010
Observed Flight Rules
Dec-14 @ 16:55 UTC
(9 minutes ago)
LIFR
Wind Visibility
50° at 8 knots 1 3/4 miles
Clouds
  • Overcast at 400' AGL
Conditions
  • Rain
Temperature Dewpoint
11°C / 52°F 11°C / 52°F
Humidity Altimeter Pressure
100% 30.12" Hg 1020 hPa
Current Rain
0.1